Flag for Spain

Past Weather in 41°05'17.2"N, 1°13'31.2"E, Spain — Yesterday and Last 2 Weeks

Currently: 57 °F. Passing clouds. (Weather station: Reus / Aeropuerto, Spain). See more current weather

Past Weather in 41°05'17.2"N, 1°13'31.2"E — Graph

°F

41°05'17.2"N, 1°13'31.2"E Temperature Yesterday

Maximum temperature yesterday: 77 °F (at 4:30 pm)
Minimum temperature yesterday: 52 °F (at 3:30 am)
Average temperature yesterday: 65 °F

High & Low Weather Summary for the Past Weeks

 TemperatureHumidityPressure
High79 °F (Apr 13, 1:30 pm)100% (Apr 4, 10:00 pm)30.48 "Hg (Apr 4, 10:00 pm)
Low41 °F (Apr 10, 6:30 am)25% (Apr 9, 5:30 pm)29.68 "Hg (Apr 1, 5:00 am)
Average61 °F64%30.13 "Hg
* Reported Apr 1 5:00 am — Apr 16 5:30 am, 41°05'17.2"N, 1°13'31.2"E. Weather by CustomWeather, © 2024

Note: Actual official high and low records may vary slightly from our data, if they occured in-between our weather recording intervals... More about our weather records

41°05'17.2"N, 1°13'31.2"E Weather History for the Previous 24 Hours

Scroll right to see more
 ConditionsComfort  
Time TempWeatherWind HumidityBarometerVisibility
5:30 am
Tue, Apr 16
57 °FClear.17 mph55%30.01 "Hg10 mi
5:00 am57 °FPassing clouds.18 mph55%30.04 "HgN/A
4:30 am57 °FClear.21 mph51%30.01 "Hg10 mi
4:00 am59 °FClear.20 mph48%30.01 "Hg10 mi
3:30 am61 °FPassing clouds.22 mph42%30.01 "HgN/A
3:00 am61 °FClear.21 mph42%30.04 "Hg10 mi
2:30 am61 °FClear.17 mph45%30.04 "Hg10 mi
2:00 am63 °FClear.16 mph45%30.07 "Hg10 mi
1:30 am64 °FPassing clouds.14 mph43%30.04 "HgN/A
1:00 am64 °FPassing clouds.18 mph46%30.04 "HgN/A
12:30 am64 °FPassing clouds.17 mph46%30.04 "HgN/A
12:00 am66 °FClear.15 mph46%30.04 "Hg10 mi
11:30 pm
Mon, Apr 15
61 °FClear.3 mph77%30.04 "Hg10 mi
11:00 pm61 °FPassing clouds.3 mph77%30.04 "HgN/A
10:30 pm61 °FClear.3 mph77%30.04 "Hg10 mi
10:00 pm61 °FClear.2 mph77%30.04 "Hg10 mi
9:30 pm63 °FClear.1 mph68%30.04 "Hg10 mi
9:00 pm64 °FPassing clouds.3 mph64%30.01 "HgN/A
8:30 pm66 °FPassing clouds.5 mph60%30.01 "HgN/A
8:00 pm68 °FPassing clouds.6 mph53%30.04 "HgN/A
7:30 pm72 °FPassing clouds.8 mph44%30.01 "HgN/A
7:00 pm73 °FPassing clouds.8 mph38%30.01 "HgN/A
6:30 pm75 °FPassing clouds.8 mph36%30.01 "HgN/A
6:00 pm75 °FPassing clouds.6 mph36%30.01 "HgN/A
5:30 pm75 °FPassing clouds.7 mph41%30.04 "HgN/A
5:00 pm77 °FPassing clouds.8 mph36%30.01 "HgN/A
4:30 pm77 °FPassing clouds.8 mph39%30.04 "HgN/A
4:00 pm75 °FPassing clouds.7 mph41%30.04 "HgN/A
3:30 pm75 °FPassing clouds.8 mph47%30.04 "HgN/A
3:00 pm75 °FPassing clouds.7 mph41%30.07 "HgN/A
2:30 pm75 °FPassing clouds.8 mph44%30.07 "HgN/A
2:00 pm75 °FSunny.5 mph47%30.07 "Hg10 mi
1:30 pm73 °FPassing clouds.6 mph53%30.07 "HgN/A
1:00 pm72 °FPassing clouds.6 mph53%30.09 "HgN/A
12:30 pm70 °FPassing clouds.7 mph57%30.07 "HgN/A
12:00 pm72 °FPassing clouds.6 mph44%30.09 "HgN/A
11:30 am73 °FSunny.5 mph41%30.07 "Hg10 mi
11:00 am73 °FSunny.2 mph36%30.09 "Hg10 mi
10:30 am70 °FSunny.2 mph38%30.09 "Hg10 mi
10:00 am68 °FSunny.5 mph43%30.07 "Hg10 mi
9:30 am63 °FPassing clouds.5 mph52%30.07 "HgN/A
9:00 am61 °FPassing clouds.5 mph55%30.07 "HgN/A
8:30 am61 °FPassing clouds.7 mph48%30.07 "HgN/A
8:00 am55 °FPassing clouds.3 mph59%30.07 "HgN/A
7:30 am54 °FPassing clouds.3 mph67%30.07 "HgN/A
7:00 am54 °FPassing clouds.3 mph63%30.07 "HgN/A
6:30 am55 °FClear.8 mph63%30.07 "Hg10 mi
6:00 am59 °FClear.8 mph55%30.07 "Hg10 mi
Weather by CustomWeather, © 2024

See weather overview